ICAO code: LHPR | IATA code: QGY | AFTN: LHPRZPZX | english | deutsch
Időjárás: 2018-12-11 15:20 (UTC) | Hőmérséklet: 3.5 °C | QNH: 1015.2 hPa | Szél: 10.5 m/s | Részletek
Live ATC LHPR
Webkameránk élőképe

Győr-Pér Repülőtér időjárás adatok

Metar:
METAR LHPR 111515Z 29022G33KT 9999 -SHRA BKN024 BKN040 04/01 Q1015 RMK WH


Taf:
TAF LHPR 111415Z 1115/1124 28014G24KT 9999 SCT040 BKN070
TEMPO 1115/1124 4000 -RASN -SN BKN020 OVC050


Jelenidő:
Szitálás, nem ónos, gyenge
Időbélyeg: 2018-12-11 15:20:00 UTC
Hőmérséklet:
3.5 °C
 
Harmatpont:
0.7 °C
 
Rel. páratartalom:
82%
 
QNH:
1015.2 hPa
 
Szélsebesség:
10.5 m/s
Max:
15.0 m/s
Szélirány:
300°
 
Csapadék (1 óra):
0.0 mm
 
Látótávolság:
20000 m
 
RVR:
>1500 m RWY30
 
1. felhőréteg mennyisége:
4 octa
 
1. felhőréteg alapja:
740 m


Az adatokat szolgáltatja
az Országos Meteorológiai Szolgálat
Győr-Pér Repülőtér | H 9099 Pér, Repülőtér | Tel: +36/96/559-200 | Fax: +36/96/559-202

ICAO code: LHPR | IATA code: QGY | AFTN: LHPRZPZX


weboldal tervezés: IRQ